ARG1884 SABE-SAWH
Flight info
| Callsign | ARG1884 |
|---|---|
| Flight time | N/A |
| Altitude | 36000 |
| Route | PTA8 GBE UP664 DIL UT662 VUPNI/N0458F380 UT662 ASKAS UT704 DABLI DABLI1Q |
| Aircraft | B738/M-SDE2E3FGHIRWXY/LB1 |
Departure
| Time | N/A |
|---|---|
| Airport | Aeroparque Jorge Newbery (SABE) |
Arrival
| Time | 2026-05-08 21:38 |
|---|---|
| Airport | Ushuaia - Malvinas Argentinas International Airport (SAWH) |
| Time | Latitude | Longitude | Altitude | Speed | Heading |
|---|---|---|---|---|---|
| 2026-05-08 20:56 | -51.64765 | -65.91632 | 38451 ft | 383 kts | 198° |
| 2026-05-08 20:57 | -51.69729 | -65.94627 | 38442 ft | 384 kts | 199° |
| 2026-05-08 20:57 | -51.74719 | -65.97632 | 38437 ft | 384 kts | 199° |
| 2026-05-08 20:58 | -51.79683 | -66.00628 | 38444 ft | 380 kts | 199° |
| 2026-05-08 20:58 | -51.84681 | -66.03486 | 38437 ft | 380 kts | 197° |
| 2026-05-08 20:59 | -51.89677 | -66.06175 | 38436 ft | 380 kts | 197° |
| 2026-05-08 20:59 | -51.94653 | -66.08909 | 38450 ft | 378 kts | 197° |
| 2026-05-08 21:00 | -51.99614 | -66.11674 | 38455 ft | 377 kts | 197° |
| 2026-05-08 21:00 | -52.04565 | -66.14470 | 38450 ft | 377 kts | 197° |
| 2026-05-08 21:01 | -52.09479 | -66.17249 | 38444 ft | 374 kts | 197° |
| 2026-05-08 21:01 | -52.14384 | -66.19992 | 38463 ft | 374 kts | 197° |
| 2026-05-08 21:02 | -52.19300 | -66.22722 | 38442 ft | 372 kts | 197° |
| 2026-05-08 21:02 | -52.24203 | -66.25454 | 38455 ft | 372 kts | 198° |
| 2026-05-08 21:03 | -52.29041 | -66.28242 | 38487 ft | 371 kts | 197° |
| 2026-05-08 21:03 | -52.33920 | -66.31041 | 38484 ft | 370 kts | 198° |
| 2026-05-08 21:04 | -52.38769 | -66.33819 | 38471 ft | 367 kts | 198° |
| 2026-05-08 21:04 | -52.43576 | -66.36558 | 38469 ft | 368 kts | 197° |
| 2026-05-08 21:05 | -52.48396 | -66.39326 | 38495 ft | 370 kts | 198° |
| 2026-05-08 21:05 | -52.53230 | -66.42117 | 38477 ft | 366 kts | 198° |
| 2026-05-08 21:06 | -52.58019 | -66.44871 | 38473 ft | 366 kts | 197° |
| 2026-05-08 21:06 | -52.62838 | -66.47585 | 38485 ft | 366 kts | 197° |
| 2026-05-08 21:07 | -52.67610 | -66.50359 | 38470 ft | 365 kts | 198° |
| 2026-05-08 21:07 | -52.72436 | -66.53140 | 38466 ft | 368 kts | 198° |
| 2026-05-08 21:08 | -52.77226 | -66.55936 | 38465 ft | 365 kts | 197° |
| 2026-05-08 21:08 | -52.81964 | -66.58678 | 38459 ft | 364 kts | 198° |
| 2026-05-08 21:09 | -52.86768 | -66.61449 | 38463 ft | 367 kts | 197° |
| 2026-05-08 21:09 | -52.91542 | -66.64217 | 38463 ft | 365 kts | 198° |
| 2026-05-08 21:10 | -52.96309 | -66.67047 | 38466 ft | 364 kts | 200° |
| 2026-05-08 21:10 | -53.01023 | -66.70026 | 38467 ft | 366 kts | 200° |
| 2026-05-08 21:11 | -53.05782 | -66.73038 | 38460 ft | 364 kts | 200° |
| 2026-05-08 21:11 | -53.10513 | -66.76025 | 38465 ft | 367 kts | 199° |
| 2026-05-08 21:12 | -53.15233 | -66.79009 | 38460 ft | 365 kts | 200° |
| 2026-05-08 21:12 | -53.19946 | -66.82000 | 38458 ft | 366 kts | 199° |
| 2026-05-08 21:13 | -53.24693 | -66.85054 | 38389 ft | 366 kts | 199° |
| 2026-05-08 21:13 | -53.27082 | -66.86574 | 37906 ft | 372 kts | 199° |
| 2026-05-08 21:13 | -53.29485 | -66.88069 | 37252 ft | 370 kts | 199° |
| 2026-05-08 21:13 | -53.31879 | -66.89544 | 36603 ft | 366 kts | 199° |
| 2026-05-08 21:14 | -53.34233 | -66.91011 | 36069 ft | 361 kts | 199° |
| 2026-05-08 21:14 | -53.36585 | -66.92504 | 35563 ft | 356 kts | 200° |
| 2026-05-08 21:14 | -53.38883 | -66.93949 | 35058 ft | 352 kts | 198° |
| 2026-05-08 21:14 | -53.41151 | -66.95391 | 34550 ft | 347 kts | 200° |
| 2026-05-08 21:15 | -53.43357 | -66.96825 | 34039 ft | 342 kts | 200° |
| 2026-05-08 21:15 | -53.45586 | -66.98262 | 33510 ft | 342 kts | 199° |
| 2026-05-08 21:15 | -53.47826 | -66.99683 | 32989 ft | 350 kts | 199° |
| 2026-05-08 21:15 | -53.50122 | -67.01136 | 32471 ft | 359 kts | 199° |
| 2026-05-08 21:16 | -53.52466 | -67.02628 | 31953 ft | 365 kts | 198° |
| 2026-05-08 21:16 | -53.54856 | -67.04154 | 31430 ft | 371 kts | 199° |
| 2026-05-08 21:16 | -53.57231 | -67.05682 | 30912 ft | 372 kts | 199° |
| 2026-05-08 21:16 | -53.59664 | -67.07252 | 30390 ft | 373 kts | 198° |
| 2026-05-08 21:17 | -53.62094 | -67.08830 | 29884 ft | 376 kts | 197° |
| 2026-05-08 21:17 | -53.64536 | -67.10413 | 29390 ft | 383 kts | 198° |
| 2026-05-08 21:17 | -53.67045 | -67.12035 | 28887 ft | 389 kts | 197° |
| 2026-05-08 21:17 | -53.69590 | -67.13661 | 28386 ft | 395 kts | 197° |
| 2026-05-08 21:18 | -53.72154 | -67.15297 | 27888 ft | 400 kts | 198° |
| 2026-05-08 21:18 | -53.74766 | -67.16977 | 27381 ft | 403 kts | 198° |
| 2026-05-08 21:18 | -53.77396 | -67.18684 | 26879 ft | 407 kts | 198° |
| 2026-05-08 21:18 | -53.80049 | -67.20413 | 26377 ft | 412 kts | 197° |
| 2026-05-08 21:19 | -53.82730 | -67.22165 | 25871 ft | 417 kts | 197° |
| 2026-05-08 21:19 | -53.85437 | -67.23935 | 25366 ft | 421 kts | 197° |
| 2026-05-08 21:19 | -53.88168 | -67.25732 | 24871 ft | 419 kts | 198° |
| 2026-05-08 21:19 | -53.90870 | -67.27507 | 24385 ft | 413 kts | 198° |
| 2026-05-08 21:20 | -53.93531 | -67.29256 | 23900 ft | 412 kts | 197° |
| 2026-05-08 21:20 | -53.96204 | -67.31013 | 23404 ft | 413 kts | 197° |
| 2026-05-08 21:20 | -53.98900 | -67.32780 | 22898 ft | 412 kts | 197° |
| 2026-05-08 21:20 | -54.01562 | -67.34525 | 22399 ft | 408 kts | 198° |
| 2026-05-08 21:21 | -54.03565 | -67.35844 | 22017 ft | 405 kts | 198° |
| 2026-05-08 21:21 | -54.06146 | -67.37547 | 21524 ft | 400 kts | 198° |
| 2026-05-08 21:21 | -54.08734 | -67.39253 | 21026 ft | 395 kts | 198° |
| 2026-05-08 21:21 | -54.11269 | -67.40928 | 20528 ft | 387 kts | 198° |
| 2026-05-08 21:22 | -54.13749 | -67.42569 | 20035 ft | 380 kts | 198° |
| 2026-05-08 21:22 | -54.16175 | -67.44174 | 19544 ft | 373 kts | 198° |
| 2026-05-08 21:22 | -54.18576 | -67.45760 | 19053 ft | 368 kts | 198° |
| 2026-05-08 21:22 | -54.20969 | -67.47347 | 18552 ft | 363 kts | 199° |
| 2026-05-08 21:23 | -54.23298 | -67.48896 | 18068 ft | 358 kts | 199° |
| 2026-05-08 21:23 | -54.25606 | -67.50433 | 17582 ft | 353 kts | 199° |
| 2026-05-08 21:23 | -54.27860 | -67.51936 | 17100 ft | 348 kts | 199° |
| 2026-05-08 21:23 | -54.30089 | -67.53417 | 16611 ft | 344 kts | 199° |
| 2026-05-08 21:24 | -54.32316 | -67.54902 | 16119 ft | 340 kts | 200° |
| 2026-05-08 21:24 | -54.34504 | -67.56368 | 15622 ft | 337 kts | 199° |
| 2026-05-08 21:24 | -54.36663 | -67.57816 | 15137 ft | 335 kts | 200° |
| 2026-05-08 21:24 | -54.38834 | -67.59272 | 14642 ft | 332 kts | 200° |
| 2026-05-08 21:25 | -54.40973 | -67.60706 | 14409 ft | 325 kts | 200° |
| 2026-05-08 21:25 | -54.43054 | -67.62103 | 14397 ft | 326 kts | 200° |
| 2026-05-08 21:25 | -54.45192 | -67.63541 | 14390 ft | 330 kts | 200° |
| 2026-05-08 21:25 | -54.47300 | -67.64966 | 14390 ft | 317 kts | 200° |
| 2026-05-08 21:26 | -54.49326 | -67.66226 | 14389 ft | 306 kts | 196° |
| 2026-05-08 21:26 | -54.51396 | -67.66860 | 14358 ft | 307 kts | 183° |
| 2026-05-08 21:26 | -54.53556 | -67.66767 | 14100 ft | 313 kts | 176° |
| 2026-05-08 21:26 | -54.55722 | -67.66399 | 13674 ft | 312 kts | 174° |
| 2026-05-08 21:27 | -54.57872 | -67.66018 | 13249 ft | 309 kts | 175° |
| 2026-05-08 21:27 | -54.59992 | -67.65700 | 12795 ft | 301 kts | 176° |
| 2026-05-08 21:27 | -54.62035 | -67.65443 | 12346 ft | 293 kts | 176° |
| 2026-05-08 21:27 | -54.64054 | -67.65215 | 11876 ft | 287 kts | 177° |
| 2026-05-08 21:28 | -54.66042 | -67.65000 | 11368 ft | 286 kts | 177° |
| 2026-05-08 21:28 | -54.68022 | -67.64784 | 10859 ft | 285 kts | 177° |
| 2026-05-08 21:28 | -54.69993 | -67.64565 | 10341 ft | 283 kts | 177° |
| 2026-05-08 21:28 | -54.71950 | -67.64342 | 9831 ft | 284 kts | 177° |
| 2026-05-08 21:29 | -54.73911 | -67.64120 | 9307 ft | 281 kts | 177° |
| 2026-05-08 21:29 | -54.75851 | -67.63907 | 8787 ft | 278 kts | 178° |
| 2026-05-08 21:29 | -54.77747 | -67.63752 | 8280 ft | 274 kts | 182° |
| 2026-05-08 21:29 | -54.79593 | -67.64221 | 7921 ft | 262 kts | 203° |
| 2026-05-08 21:30 | -54.81050 | -67.65908 | 7665 ft | 247 kts | 229° |
| 2026-05-08 21:30 | -54.82058 | -67.68214 | 7391 ft | 235 kts | 250° |
| 2026-05-08 21:30 | -54.82282 | -67.70888 | 7148 ft | 220 kts | 278° |
| 2026-05-08 21:30 | -54.82064 | -67.73453 | 6877 ft | 210 kts | 279° |
| 2026-05-08 21:31 | -54.82051 | -67.75925 | 6582 ft | 205 kts | 268° |
| 2026-05-08 21:31 | -54.82202 | -67.78361 | 6306 ft | 198 kts | 266° |
| 2026-05-08 21:31 | -54.82339 | -67.80691 | 6017 ft | 190 kts | 268° |
| 2026-05-08 21:31 | -54.82417 | -67.82909 | 5759 ft | 181 kts | 270° |
| 2026-05-08 21:32 | -54.82489 | -67.85074 | 5484 ft | 180 kts | 269° |
| 2026-05-08 21:32 | -54.82581 | -67.87206 | 5414 ft | 175 kts | 268° |
| 2026-05-08 21:32 | -54.82673 | -67.89333 | 5433 ft | 176 kts | 269° |
| 2026-05-08 21:32 | -54.82759 | -67.91450 | 5169 ft | 177 kts | 269° |
| 2026-05-08 21:33 | -54.82847 | -67.93550 | 4785 ft | 172 kts | 269° |
| 2026-05-08 21:33 | -54.82933 | -67.95565 | 4526 ft | 163 kts | 270° |
| 2026-05-08 21:33 | -54.83017 | -67.97468 | 4300 ft | 159 kts | 269° |
| 2026-05-08 21:33 | -54.83096 | -67.99379 | 3978 ft | 156 kts | 269° |
| 2026-05-08 21:34 | -54.83171 | -68.01220 | 3743 ft | 154 kts | 270° |
| 2026-05-08 21:34 | -54.83248 | -68.03100 | 3473 ft | 154 kts | 270° |
| 2026-05-08 21:34 | -54.83327 | -68.04902 | 3200 ft | 145 kts | 270° |
| 2026-05-08 21:34 | -54.83398 | -68.06582 | 3002 ft | 136 kts | 271° |
| 2026-05-08 21:35 | -54.83460 | -68.08234 | 2770 ft | 139 kts | 270° |
| 2026-05-08 21:35 | -54.83527 | -68.09940 | 2520 ft | 141 kts | 270° |
| 2026-05-08 21:35 | -54.83597 | -68.11616 | 2287 ft | 140 kts | 270° |
| 2026-05-08 21:35 | -54.83661 | -68.13284 | 2060 ft | 138 kts | 272° |
| 2026-05-08 21:36 | -54.83712 | -68.14948 | 1830 ft | 138 kts | 271° |
| 2026-05-08 21:36 | -54.83814 | -68.16595 | 1601 ft | 138 kts | 269° |
| 2026-05-08 21:36 | -54.83886 | -68.18264 | 1390 ft | 141 kts | 272° |
| 2026-05-08 21:36 | -54.83933 | -68.19970 | 1146 ft | 141 kts | 271° |
| 2026-05-08 21:37 | -54.84018 | -68.21657 | 913 ft | 138 kts | 270° |
| 2026-05-08 21:37 | -54.84084 | -68.23315 | 693 ft | 138 kts | 271° |
| 2026-05-08 21:37 | -54.84141 | -68.24979 | 468 ft | 138 kts | 270° |
| 2026-05-08 21:37 | -54.84222 | -68.26656 | 238 ft | 140 kts | 270° |
| 2026-05-08 21:38 | -54.84285 | -68.28333 | 49 ft | 136 kts | 269° |
| 2026-05-08 21:38 | -54.84329 | -68.29573 | 62 ft | 66 kts | 266° |
| 2026-05-08 21:38 | -54.84353 | -68.30112 | 69 ft | 38 kts | 265° |
| 2026-05-08 21:38 | -54.84369 | -68.30561 | 69 ft | 33 kts | 266° |
| 2026-05-08 21:39 | -54.84380 | -68.30836 | 67 ft | 13 kts | 267° |
| 2026-05-08 21:39 | -54.84328 | -68.30944 | 65 ft | 10 kts | 352° |
| 2026-05-08 21:39 | -54.84316 | -68.30946 | 65 ft | 0 kts | 354° |
| 2026-05-08 21:41 | -54.84293 | -68.30950 | 65 ft | 6 kts | 354° |
| 2026-05-08 21:42 | -54.84229 | -68.30959 | 65 ft | 11 kts | 356° |
| 2026-05-08 21:42 | -54.84134 | -68.30971 | 66 ft | 12 kts | 354° |
| 2026-05-08 21:42 | -54.84086 | -68.31086 | 65 ft | 13 kts | 268° |
| 2026-05-08 21:42 | -54.84091 | -68.31239 | 61 ft | 6 kts | 273° |
| 2026-05-08 21:43 | -54.84061 | -68.31258 | 61 ft | 4 kts | 12° |
| 2026-05-08 21:43 | -54.84033 | -68.31248 | 61 ft | 2 kts | 11° |
| 2026-05-08 21:43 | -54.84020 | -68.31243 | 61 ft | 0 kts | 11° |
| 2026-05-08 21:43 | -54.84018 | -68.31242 | 61 ft | 0 kts | 11° |